createdAt,value
2018-10-15T00:00:44.585Z,14.48
2018-10-15T00:02:12.118Z,14.52
2018-10-15T00:03:39.596Z,14.55
2018-10-15T00:05:06.988Z,14.58
2018-10-15T00:06:34.305Z,14.61
2018-10-15T00:08:01.800Z,14.63
2018-10-15T00:09:29.289Z,14.65
2018-10-15T00:10:56.702Z,14.67
2018-10-15T00:12:24.116Z,14.69
2018-10-15T00:13:51.565Z,14.71
2018-10-15T00:15:19.069Z,14.73
2018-10-15T00:16:46.387Z,14.74
2018-10-15T00:18:13.925Z,14.76
2018-10-15T00:19:41.399Z,14.77
2018-10-15T00:21:08.894Z,14.78
2018-10-15T00:22:36.428Z,14.79
2018-10-15T00:24:03.918Z,14.79
2018-10-15T00:25:31.334Z,14.79
2018-10-15T00:26:58.821Z,14.77
2018-10-15T00:28:26.108Z,14.75
2018-10-15T00:29:53.630Z,14.72
2018-10-15T00:31:20.900Z,14.68
2018-10-15T00:32:48.444Z,14.64
2018-10-15T00:34:15.950Z,14.60
2018-10-15T00:35:43.548Z,14.55
2018-10-15T00:37:11.022Z,14.50
2018-10-15T00:38:38.392Z,14.45
2018-10-15T00:40:05.916Z,14.40
2018-10-15T00:41:33.331Z,14.34
2018-10-15T00:43:00.924Z,14.28
2018-10-15T00:44:28.132Z,14.23
2018-10-15T00:45:55.766Z,14.17
2018-10-15T00:47:23.166Z,14.12
2018-10-15T00:48:50.584Z,14.07
2018-10-15T00:50:17.988Z,14.03
2018-10-15T00:51:45.399Z,14.00
2018-10-15T00:53:18.801Z,13.98
2018-10-15T00:54:40.379Z,13.96
2018-10-15T00:56:08.033Z,13.93
2018-10-15T00:57:35.411Z,13.91
2018-10-15T00:59:03.018Z,13.90
2018-10-15T01:00:30.335Z,13.89
2018-10-15T01:01:57.645Z,13.87
2018-10-15T01:03:25.079Z,13.84
2018-10-15T01:04:52.520Z,13.81
2018-10-15T01:06:19.961Z,13.77
2018-10-15T01:07:47.642Z,13.73
2018-10-15T01:09:15.046Z,13.70
2018-10-15T01:10:42.578Z,13.67
2018-10-15T01:12:10.106Z,13.65
2018-10-15T01:13:37.715Z,13.64
2018-10-15T01:15:05.234Z,13.64
2018-10-15T01:16:32.506Z,13.65
2018-10-15T01:17:59.949Z,13.65
2018-10-15T01:19:27.296Z,13.65
2018-10-15T01:20:54.793Z,13.66
2018-10-15T01:22:22.343Z,13.67
2018-10-15T01:23:49.928Z,13.69
2018-10-15T01:25:17.403Z,13.72
2018-10-15T01:26:44.891Z,13.76
2018-10-15T01:28:12.323Z,13.79
2018-10-15T01:29:39.757Z,13.81
2018-10-15T01:31:07.286Z,13.84
2018-10-15T01:32:34.679Z,13.87
2018-10-15T01:34:02.116Z,13.91
2018-10-15T01:35:29.583Z,13.94
2018-10-15T01:36:57.117Z,13.97
2018-10-15T01:38:24.593Z,14.01
2018-10-15T01:39:52.025Z,14.03
2018-10-15T01:41:19.445Z,14.06
2018-10-15T01:44:14.177Z,14.12
2018-10-15T01:45:41.712Z,14.13
2018-10-15T01:47:09.096Z,14.14
2018-10-15T01:48:36.509Z,14.15
2018-10-15T01:50:03.862Z,14.15
2018-10-15T01:51:31.340Z,14.16
2018-10-15T01:52:58.823Z,14.15
2018-10-15T01:54:26.177Z,14.15
2018-10-15T01:55:53.516Z,14.16
2018-10-15T01:57:21.045Z,14.17
2018-10-15T01:58:48.416Z,14.18
2018-10-15T02:00:15.875Z,14.19
2018-10-15T02:01:43.524Z,14.21
2018-10-15T02:03:11.090Z,14.23
2018-10-15T02:04:38.676Z,14.24
2018-10-15T02:06:06.023Z,14.26
2018-10-15T02:07:33.622Z,14.26
2018-10-15T02:09:01.043Z,14.27
2018-10-15T02:10:28.665Z,14.27
2018-10-15T02:11:55.937Z,14.27
2018-10-15T02:13:23.549Z,14.26
2018-10-15T02:14:51.235Z,14.26
2018-10-15T02:16:18.650Z,14.25
2018-10-15T02:17:46.072Z,14.25
2018-10-15T02:19:13.371Z,14.24
2018-10-15T02:20:40.879Z,14.24
2018-10-15T02:22:07.940Z,14.24
2018-10-15T02:23:35.221Z,14.24
2018-10-15T02:25:02.638Z,14.24
2018-10-15T02:26:30.162Z,14.24
2018-10-15T02:27:57.625Z,14.24
2018-10-15T02:29:25.066Z,14.24
2018-10-15T02:30:52.459Z,14.24
2018-10-15T02:32:20.020Z,14.24
2018-10-15T02:33:47.374Z,14.24
2018-10-15T02:35:14.902Z,14.24
2018-10-15T02:36:42.448Z,14.24
2018-10-15T02:38:09.906Z,14.23
2018-10-15T02:39:37.448Z,14.20
2018-10-15T02:41:04.990Z,14.19
2018-10-15T02:42:32.500Z,14.16
2018-10-15T02:43:59.907Z,14.14
2018-10-15T02:45:27.553Z,14.12
2018-10-15T02:46:54.863Z,14.09
2018-10-15T02:48:22.283Z,14.07
2018-10-15T02:49:49.855Z,14.03
2018-10-15T02:51:17.232Z,14.01
2018-10-15T02:52:44.710Z,13.95
2018-10-15T02:54:12.372Z,13.87
2018-10-15T02:55:39.732Z,13.79
2018-10-15T02:57:07.290Z,13.76
2018-10-15T02:58:34.631Z,13.72
2018-10-15T03:00:02.132Z,13.72
2018-10-15T03:01:29.610Z,13.73
2018-10-15T03:02:57.064Z,13.69
2018-10-15T03:04:24.482Z,13.60
2018-10-15T03:05:51.946Z,13.53
2018-10-15T03:07:19.336Z,13.44
2018-10-15T03:08:46.756Z,13.36
2018-10-15T03:10:14.234Z,13.31
2018-10-15T03:11:41.822Z,13.26
2018-10-15T03:13:09.316Z,13.22
2018-10-15T03:14:36.661Z,13.14
2018-10-15T03:16:04.279Z,13.10
2018-10-15T03:17:31.646Z,13.10
2018-10-15T03:18:59.052Z,13.09
2018-10-15T03:20:26.396Z,13.09
2018-10-15T03:21:53.996Z,13.09
2018-10-15T03:23:21.436Z,13.09
2018-10-15T03:24:48.765Z,13.12
2018-10-15T03:26:16.157Z,13.17
2018-10-15T03:27:43.710Z,13.22
2018-10-15T03:29:11.128Z,13.27
2018-10-15T03:30:38.702Z,13.32
2018-10-15T03:32:06.244Z,13.36
2018-10-15T03:33:33.642Z,13.39
2018-10-15T03:35:01.116Z,13.42
2018-10-15T03:36:32.891Z,13.43
2018-10-15T03:37:55.941Z,13.45
2018-10-15T03:39:23.382Z,13.47
2018-10-15T03:40:50.915Z,13.49
2018-10-15T03:42:18.398Z,13.51
2018-10-15T03:43:45.817Z,13.52
2018-10-15T03:45:13.286Z,13.52
2018-10-15T03:46:40.722Z,13.51
2018-10-15T03:48:08.224Z,13.49
2018-10-15T03:49:35.732Z,13.46
2018-10-15T03:51:03.230Z,13.43
2018-10-15T03:52:30.726Z,13.34
2018-10-15T03:53:58.135Z,13.23
2018-10-15T03:55:25.527Z,13.19
2018-10-15T03:56:52.828Z,13.17
2018-10-15T03:58:20.390Z,13.16
2018-10-15T03:59:47.817Z,13.16
2018-10-15T04:01:15.081Z,13.17
2018-10-15T04:02:42.465Z,13.19
2018-10-15T04:04:09.873Z,13.21
2018-10-15T04:05:37.528Z,13.23
2018-10-15T04:07:04.801Z,13.25
2018-10-15T04:08:32.527Z,13.24
2018-10-15T04:09:59.985Z,13.22
2018-10-15T04:11:27.331Z,13.17
2018-10-15T04:12:54.739Z,13.14
2018-10-15T04:14:22.169Z,13.10
2018-10-15T04:15:49.596Z,13.07
2018-10-15T04:17:16.784Z,13.04
2018-10-15T04:18:44.282Z,13.03
2018-10-15T04:20:11.704Z,13.04
2018-10-15T04:21:39.183Z,13.06
2018-10-15T04:23:06.750Z,13.07
2018-10-15T04:24:34.369Z,13.07
2018-10-15T04:26:01.762Z,13.09
2018-10-15T04:27:29.119Z,13.10
2018-10-15T04:28:56.501Z,13.11
2018-10-15T04:30:23.946Z,13.14
2018-10-15T04:31:51.393Z,13.15
2018-10-15T04:33:19.005Z,13.15
2018-10-15T04:34:46.295Z,13.16
2018-10-15T04:36:13.837Z,13.17
2018-10-15T04:37:41.280Z,13.19
2018-10-15T04:39:08.716Z,13.22
2018-10-15T04:40:36.165Z,13.24
2018-10-15T04:42:03.621Z,13.26
2018-10-15T04:43:31.147Z,13.29
2018-10-15T04:44:58.651Z,13.31
2018-10-15T04:46:25.992Z,13.28
2018-10-15T04:47:53.440Z,13.24
2018-10-15T04:49:20.998Z,13.21
2018-10-15T04:50:48.268Z,13.20
2018-10-15T04:52:15.643Z,13.19
2018-10-15T04:53:43.139Z,13.20
2018-10-15T04:55:10.420Z,13.21
2018-10-15T04:56:37.881Z,13.21
2018-10-15T04:58:05.363Z,13.22
2018-10-15T04:59:32.685Z,13.24
2018-10-15T05:01:00.223Z,13.24
2018-10-15T05:02:27.662Z,13.19
2018-10-15T05:03:55.121Z,13.18
2018-10-15T05:05:22.587Z,13.18
2018-10-15T05:06:50.124Z,13.19
2018-10-15T05:08:17.589Z,13.15
2018-10-15T05:09:45.033Z,13.14
2018-10-15T05:11:12.515Z,13.13
2018-10-15T05:12:40.029Z,13.14
2018-10-15T05:14:07.571Z,13.15
2018-10-15T05:15:35.041Z,13.15
2018-10-15T05:17:02.402Z,13.15
2018-10-15T05:18:29.741Z,13.14
2018-10-15T05:19:57.404Z,13.13
2018-10-15T05:21:25.038Z,13.11
2018-10-15T05:22:52.418Z,13.10
2018-10-15T05:24:19.914Z,13.08
2018-10-15T05:25:47.336Z,13.07
2018-10-15T05:27:14.885Z,13.05
2018-10-15T05:28:42.420Z,13.03
2018-10-15T05:30:09.904Z,13.03
2018-10-15T05:31:36.967Z,13.04
2018-10-15T05:33:04.439Z,13.01
2018-10-15T05:34:31.741Z,12.94
2018-10-15T05:35:59.347Z,12.89
2018-10-15T05:37:26.803Z,12.88
2018-10-15T05:38:54.302Z,12.89
2018-10-15T05:40:21.743Z,12.91
2018-10-15T05:41:49.252Z,12.93
2018-10-15T05:43:16.657Z,12.94
2018-10-15T05:44:44.126Z,12.95
2018-10-15T05:46:11.404Z,12.95
2018-10-15T05:47:38.866Z,12.95
2018-10-15T05:49:06.231Z,12.93
2018-10-15T05:50:33.708Z,12.88
2018-10-15T05:52:01.297Z,12.82
2018-10-15T05:53:28.629Z,12.74
2018-10-15T05:54:56.040Z,12.68
2018-10-15T05:56:23.401Z,12.63
2018-10-15T05:57:50.787Z,12.55
2018-10-15T05:59:18.273Z,12.50
2018-10-15T06:00:45.591Z,12.47
2018-10-15T06:02:13.014Z,12.43
2018-10-15T06:03:40.292Z,12.38
2018-10-15T06:05:07.624Z,12.36
2018-10-15T06:06:35.070Z,12.35
2018-10-15T06:08:06.647Z,12.34
2018-10-15T06:09:30.162Z,12.37
2018-10-15T06:10:57.411Z,12.41
2018-10-15T06:12:24.849Z,12.44
2018-10-15T06:13:52.278Z,12.49
2018-10-15T06:15:19.752Z,12.53
2018-10-15T06:16:47.099Z,12.58
2018-10-15T06:18:14.617Z,12.59
2018-10-15T06:19:42.006Z,12.63
2018-10-15T06:21:09.354Z,12.65
2018-10-15T06:22:36.766Z,12.67
2018-10-15T06:24:04.217Z,12.70
2018-10-15T06:25:31.616Z,12.73
2018-10-15T06:26:59.104Z,12.75
2018-10-15T06:28:26.552Z,12.77
2018-10-15T06:29:53.862Z,12.79
2018-10-15T06:31:21.260Z,12.82
2018-10-15T06:32:48.739Z,12.86
2018-10-15T06:34:16.172Z,12.89
2018-10-15T06:35:43.738Z,12.91
2018-10-15T06:37:11.006Z,12.93
2018-10-15T06:38:38.490Z,12.96
2018-10-15T06:40:06.019Z,13.00
2018-10-15T06:41:33.378Z,13.05
2018-10-15T06:43:00.783Z,13.10
2018-10-15T06:44:28.152Z,13.15
2018-10-15T06:45:55.637Z,13.19
2018-10-15T06:47:23.288Z,13.24
2018-10-15T06:48:50.541Z,13.28
2018-10-15T06:50:18.020Z,13.33
2018-10-15T06:51:45.502Z,13.37
2018-10-15T06:53:13.053Z,13.41
2018-10-15T06:54:40.441Z,13.44
2018-10-15T06:56:08.038Z,13.48
2018-10-15T06:57:35.408Z,13.50
2018-10-15T06:59:03.089Z,13.52
2018-10-15T07:00:30.464Z,13.54
2018-10-15T07:01:57.825Z,13.58
2018-10-15T07:03:25.409Z,13.62
2018-10-15T07:04:52.770Z,13.65
2018-10-15T07:06:20.176Z,13.68
2018-10-15T07:07:47.845Z,13.71
2018-10-15T07:09:15.139Z,13.74
2018-10-15T07:10:42.665Z,13.77
2018-10-15T07:12:10.191Z,13.80
2018-10-15T07:13:37.728Z,13.82
2018-10-15T07:15:05.159Z,13.85
2018-10-15T07:16:32.641Z,13.88
2018-10-15T07:18:00.038Z,13.91
2018-10-15T07:19:27.699Z,13.94
2018-10-15T07:20:54.834Z,13.96
2018-10-15T07:22:22.162Z,13.99
2018-10-15T07:23:49.586Z,14.02
2018-10-15T07:25:17.180Z,14.05
2018-10-15T07:26:44.742Z,14.07
2018-10-15T07:28:12.225Z,14.09
2018-10-15T07:29:39.578Z,14.10
2018-10-15T07:31:06.931Z,14.11
2018-10-15T07:32:34.331Z,14.14
2018-10-15T07:34:01.724Z,14.17
2018-10-15T07:35:29.144Z,14.20
2018-10-15T07:36:56.690Z,14.24
2018-10-15T07:38:23.842Z,14.28
2018-10-15T07:39:51.323Z,14.31
2018-10-15T07:41:18.866Z,14.34
2018-10-15T07:42:46.437Z,14.38
2018-10-15T07:44:13.894Z,14.41
2018-10-15T07:45:41.352Z,14.46
2018-10-15T07:47:08.718Z,14.49
2018-10-15T07:48:36.290Z,14.53
2018-10-15T07:50:03.893Z,14.57
2018-10-15T07:51:31.232Z,14.62
2018-10-15T07:52:58.697Z,14.65
2018-10-15T07:54:26.018Z,14.68
2018-10-15T07:55:53.496Z,14.70
2018-10-15T07:57:21.180Z,14.72
2018-10-15T07:58:48.697Z,14.75
2018-10-15T08:00:16.042Z,14.78
2018-10-15T08:01:43.514Z,14.81
2018-10-15T08:03:10.808Z,14.83
2018-10-15T08:04:38.336Z,14.86
2018-10-15T08:06:05.812Z,14.90
2018-10-15T08:07:33.504Z,14.92
2018-10-15T08:09:00.756Z,14.95
2018-10-15T08:10:28.374Z,14.98
2018-10-15T08:11:55.695Z,15.01
2018-10-15T08:13:23.202Z,15.04
2018-10-15T08:14:50.871Z,15.07
2018-10-15T08:16:18.297Z,15.10
2018-10-15T08:17:45.449Z,15.13
2018-10-15T08:19:12.930Z,15.15
2018-10-15T08:20:40.369Z,15.19
2018-10-15T08:22:07.608Z,15.22
2018-10-15T08:23:35.086Z,15.25
2018-10-15T08:25:02.679Z,15.30
2018-10-15T08:26:30.124Z,15.33
2018-10-15T08:27:57.631Z,15.36
2018-10-15T08:29:25.011Z,15.40
2018-10-15T08:30:52.604Z,15.44
2018-10-15T08:32:20.104Z,15.49
2018-10-15T08:33:47.764Z,15.52
2018-10-15T08:35:15.201Z,15.55
2018-10-15T08:36:42.707Z,15.58
2018-10-15T08:38:10.116Z,15.62
2018-10-15T08:39:37.662Z,15.65
2018-10-15T08:41:05.171Z,15.70
2018-10-15T08:42:32.691Z,15.73
2018-10-15T08:44:00.171Z,15.75
2018-10-15T08:45:27.813Z,15.77
2018-10-15T08:46:55.267Z,15.80
2018-10-15T08:48:22.792Z,15.83
2018-10-15T08:49:50.210Z,15.87
2018-10-15T08:51:17.479Z,15.91
2018-10-15T08:52:45.093Z,15.95
2018-10-15T08:54:12.439Z,15.98
2018-10-15T08:55:39.908Z,16.03
2018-10-15T08:57:07.295Z,16.07
2018-10-15T08:58:34.704Z,16.12
2018-10-15T09:00:02.226Z,16.16
2018-10-15T09:01:29.719Z,16.21
2018-10-15T09:02:57.284Z,16.24
2018-10-15T09:04:24.747Z,16.28
2018-10-15T09:05:52.168Z,16.32
2018-10-15T09:07:19.807Z,16.35
2018-10-15T09:08:47.241Z,16.38
2018-10-15T09:10:14.670Z,16.42
2018-10-15T09:11:42.169Z,16.45
2018-10-15T09:13:09.859Z,16.49
2018-10-15T09:14:37.397Z,16.54
2018-10-15T09:16:04.771Z,16.58
2018-10-15T09:17:32.241Z,16.62
2018-10-15T09:18:59.769Z,16.66
2018-10-15T09:20:27.189Z,16.70
2018-10-15T09:21:54.772Z,16.75
2018-10-15T09:23:22.356Z,16.79
2018-10-15T09:24:49.753Z,16.82
2018-10-15T09:26:17.272Z,16.87
2018-10-15T09:27:44.671Z,16.94
2018-10-15T09:29:12.078Z,16.98
2018-10-15T09:30:39.606Z,17.02
2018-10-15T09:32:07.137Z,17.06
2018-10-15T09:33:34.832Z,17.11
2018-10-15T09:35:02.224Z,17.14
2018-10-15T09:36:29.674Z,17.20
2018-10-15T09:37:57.344Z,17.24
2018-10-15T09:39:24.637Z,17.28
2018-10-15T09:40:52.315Z,17.30
2018-10-15T09:42:19.595Z,17.34
2018-10-15T09:43:47.174Z,17.36
2018-10-15T09:45:14.647Z,17.42
2018-10-15T09:46:42.244Z,17.45
2018-10-15T09:48:09.796Z,17.50
2018-10-15T09:49:37.325Z,17.55
2018-10-15T09:51:04.880Z,17.61
2018-10-15T09:52:32.360Z,17.65
2018-10-15T09:53:59.924Z,17.70
2018-10-15T09:55:27.408Z,17.74
2018-10-15T09:56:55.097Z,17.78
2018-10-15T09:58:22.551Z,17.86
2018-10-15T09:59:50.154Z,17.91
2018-10-15T10:01:17.826Z,17.94
2018-10-15T10:02:45.344Z,17.98
2018-10-15T10:04:12.922Z,18.03
2018-10-15T10:05:40.317Z,18.09
2018-10-15T10:07:08.035Z,18.17
2018-10-15T10:08:35.470Z,18.19
2018-10-15T10:10:03.042Z,18.22
2018-10-15T10:11:30.672Z,18.25
2018-10-15T10:12:58.188Z,18.29
2018-10-15T10:14:25.747Z,18.34
2018-10-15T10:15:52.990Z,18.38
2018-10-15T10:17:20.746Z,18.45
2018-10-15T10:18:48.127Z,18.53
2018-10-15T10:20:15.548Z,18.61
2018-10-15T10:21:43.174Z,18.66
2018-10-15T10:23:10.690Z,18.71
2018-10-15T10:24:38.305Z,18.76
2018-10-15T10:26:06.107Z,18.83
2018-10-15T10:27:33.340Z,18.89
2018-10-15T10:29:00.895Z,18.94
2018-10-15T10:30:28.245Z,19.00
2018-10-15T10:31:55.690Z,19.09
2018-10-15T10:33:23.172Z,19.20
2018-10-15T10:34:50.640Z,19.28
2018-10-15T10:36:18.142Z,19.35
2018-10-15T10:37:45.540Z,19.41
2018-10-15T10:39:12.959Z,19.48
2018-10-15T10:40:40.572Z,19.53
2018-10-15T10:42:08.150Z,19.60
2018-10-15T10:43:35.723Z,19.64
2018-10-15T10:45:03.384Z,19.68
2018-10-15T10:46:30.828Z,19.70
2018-10-15T10:47:58.255Z,19.75
2018-10-15T10:49:25.730Z,19.80
2018-10-15T10:50:53.284Z,19.88
2018-10-15T10:52:20.712Z,19.98
2018-10-15T10:53:48.182Z,20.10
2018-10-15T10:55:15.778Z,20.25
2018-10-15T10:56:43.228Z,20.38
2018-10-15T10:58:10.926Z,20.50
2018-10-15T10:59:38.459Z,20.61
2018-10-15T11:01:05.917Z,20.80
2018-10-15T11:02:33.585Z,20.98
2018-10-15T11:04:00.959Z,21.09
2018-10-15T11:05:28.593Z,21.22
2018-10-15T11:06:56.128Z,21.34
2018-10-15T11:08:23.688Z,21.53
2018-10-15T11:09:51.211Z,21.66
2018-10-15T11:11:18.897Z,21.71
2018-10-15T11:12:46.445Z,21.89
2018-10-15T11:14:14.107Z,21.96
2018-10-15T11:15:41.716Z,22.11
2018-10-15T11:17:09.307Z,22.26
2018-10-15T11:18:37.039Z,22.53
2018-10-15T11:20:04.528Z,22.66
2018-10-15T11:21:36.207Z,22.91
2018-10-15T11:22:59.650Z,23.11
2018-10-15T11:24:27.198Z,23.21
2018-10-15T11:25:54.829Z,23.30
2018-10-15T11:27:22.421Z,23.50
2018-10-15T11:28:50.003Z,23.66
2018-10-15T11:30:17.672Z,23.84
2018-10-15T11:31:45.179Z,23.91
2018-10-15T11:33:12.553Z,24.11
2018-10-15T11:34:40.186Z,24.26
2018-10-15T11:36:07.598Z,24.37
2018-10-15T11:37:35.031Z,24.36
2018-10-15T11:39:02.598Z,24.29
2018-10-15T11:40:30.238Z,24.26
2018-10-15T11:41:57.962Z,24.11
2018-10-15T11:43:25.488Z,24.15
2018-10-15T11:44:53.013Z,24.28
2018-10-15T11:46:20.681Z,24.44
2018-10-15T11:47:48.358Z,24.55
2018-10-15T11:49:15.862Z,24.66
2018-10-15T11:50:43.587Z,24.54
2018-10-15T11:52:11.312Z,24.52
2018-10-15T11:53:38.993Z,24.29
2018-10-15T11:55:06.435Z,24.39
2018-10-15T11:56:34.118Z,24.53
2018-10-15T11:58:01.750Z,24.73
2018-10-15T11:59:29.135Z,24.82
2018-10-15T12:00:56.845Z,24.97
2018-10-15T12:02:24.521Z,25.07
2018-10-15T12:03:52.089Z,25.14
2018-10-15T12:05:19.706Z,25.22
2018-10-15T12:06:47.433Z,25.30
2018-10-15T12:08:15.048Z,25.37
2018-10-15T12:09:42.793Z,25.42
2018-10-15T12:11:10.396Z,25.49
2018-10-15T12:12:37.812Z,25.58
2018-10-15T12:14:05.508Z,25.65
2018-10-15T12:15:33.242Z,25.74
2018-10-15T12:17:01.028Z,25.78
2018-10-15T12:18:28.464Z,25.87
2018-10-15T12:19:56.080Z,25.99
2018-10-15T12:21:23.866Z,25.92
2018-10-15T12:22:51.354Z,25.94
2018-10-15T12:24:18.995Z,26.00
2018-10-15T12:25:46.705Z,26.09
2018-10-15T12:27:14.364Z,26.22
2018-10-15T12:28:42.014Z,26.32
2018-10-15T12:30:09.730Z,26.41
2018-10-15T12:31:37.531Z,26.47
2018-10-15T12:33:05.128Z,26.54
2018-10-15T12:34:32.685Z,26.62
2018-10-15T12:36:00.443Z,26.62
2018-10-15T12:37:27.994Z,26.42
2018-10-15T12:38:55.568Z,26.31
2018-10-15T12:40:23.340Z,26.39
2018-10-15T12:41:51.028Z,26.35
2018-10-15T12:43:18.527Z,26.44
2018-10-15T12:44:46.057Z,26.40
2018-10-15T12:46:13.739Z,26.44
2018-10-15T12:47:41.457Z,26.54
2018-10-15T12:49:09.112Z,26.67
2018-10-15T12:50:36.849Z,26.73
2018-10-15T12:52:04.499Z,26.78
2018-10-15T12:53:32.246Z,26.78
2018-10-15T12:54:59.720Z,26.78
2018-10-15T12:56:27.481Z,26.82
2018-10-15T12:57:55.051Z,26.86
2018-10-15T12:59:22.696Z,26.89
2018-10-15T13:00:50.333Z,26.89
2018-10-15T13:02:17.995Z,26.85
2018-10-15T13:03:45.811Z,26.85
2018-10-15T13:05:13.505Z,26.85
2018-10-15T13:06:41.047Z,26.80
2018-10-15T13:08:08.780Z,26.76
2018-10-15T13:09:36.393Z,26.74
2018-10-15T13:11:04.046Z,26.74
2018-10-15T13:12:31.784Z,26.74
2018-10-15T13:13:59.545Z,26.79
2018-10-15T13:15:27.181Z,26.80
2018-10-15T13:16:54.863Z,26.74
2018-10-15T13:18:22.461Z,26.71
2018-10-15T13:19:50.123Z,26.68
2018-10-15T13:21:17.666Z,26.72
2018-10-15T13:22:45.399Z,26.72
2018-10-15T13:24:13.304Z,26.71
2018-10-15T13:25:40.903Z,26.72
2018-10-15T13:27:08.481Z,26.71
2018-10-15T13:28:36.169Z,26.67
2018-10-15T13:30:03.857Z,26.61
2018-10-15T13:31:31.496Z,26.55
2018-10-15T13:32:59.200Z,26.48
2018-10-15T13:34:26.844Z,26.48
2018-10-15T13:35:54.487Z,26.48
2018-10-15T13:37:22.241Z,26.47
2018-10-15T13:38:49.843Z,26.42
2018-10-15T13:40:17.670Z,26.43
2018-10-15T13:41:45.389Z,26.45
2018-10-15T13:43:12.904Z,26.46
2018-10-15T13:44:40.521Z,26.40
2018-10-15T13:46:07.959Z,26.39
2018-10-15T13:47:35.619Z,26.40
2018-10-15T13:49:03.299Z,26.38
2018-10-15T13:50:31.013Z,26.35
2018-10-15T13:51:58.580Z,26.25
2018-10-15T13:53:26.051Z,26.19
2018-10-15T13:54:53.814Z,26.16
2018-10-15T13:56:21.423Z,26.12
2018-10-15T13:57:49.123Z,26.06
2018-10-15T13:59:16.803Z,25.99
2018-10-15T14:00:44.561Z,25.94
2018-10-15T14:02:12.169Z,25.95
2018-10-15T14:03:39.896Z,25.94
2018-10-15T14:05:07.346Z,25.91
2018-10-15T14:06:34.912Z,25.87
2018-10-15T14:08:02.575Z,25.82
2018-10-15T14:09:30.076Z,25.76
2018-10-15T14:10:57.688Z,25.67
2018-10-15T14:12:25.447Z,25.55
2018-10-15T14:13:53.212Z,25.45
2018-10-15T14:15:20.699Z,25.34
2018-10-15T14:16:48.386Z,25.24
2018-10-15T14:18:16.172Z,25.13
2018-10-15T14:19:43.767Z,25.04
2018-10-15T14:21:11.342Z,24.96
2018-10-15T14:22:38.803Z,24.86
2018-10-15T14:24:06.486Z,24.78
2018-10-15T14:25:34.173Z,24.71
2018-10-15T14:27:01.669Z,24.65
2018-10-15T14:28:29.151Z,24.60
2018-10-15T14:29:56.905Z,24.55
2018-10-15T14:31:24.349Z,24.49
2018-10-15T14:32:52.003Z,24.44
2018-10-15T14:34:19.504Z,24.39
2018-10-15T14:35:47.169Z,24.33
2018-10-15T14:37:14.846Z,24.26
2018-10-15T14:38:42.234Z,24.20
2018-10-15T14:40:09.909Z,24.15
2018-10-15T14:41:37.529Z,24.10
2018-10-15T14:43:05.101Z,24.05
2018-10-15T14:44:32.689Z,23.97
2018-10-15T14:46:00.391Z,23.91
2018-10-15T14:47:28.017Z,23.85
2018-10-15T14:48:55.655Z,23.79
2018-10-15T14:50:23.319Z,23.72
2018-10-15T14:51:50.895Z,23.66
2018-10-15T14:53:18.676Z,23.62
2018-10-15T14:54:46.153Z,23.52
2018-10-15T14:56:13.651Z,23.47
2018-10-15T14:57:41.347Z,23.42
2018-10-15T14:59:09.106Z,23.37
2018-10-15T15:00:36.728Z,23.31
2018-10-15T15:02:04.373Z,23.26
2018-10-15T15:03:32.045Z,23.18
2018-10-15T15:04:59.726Z,23.10
2018-10-15T15:06:27.424Z,23.03
2018-10-15T15:07:55.000Z,22.98
2018-10-15T15:09:22.651Z,22.86
2018-10-15T15:10:50.193Z,22.80
2018-10-15T15:12:17.897Z,22.73
2018-10-15T15:13:45.603Z,22.62
2018-10-15T15:15:13.066Z,22.57
2018-10-15T15:16:40.742Z,22.57
2018-10-15T15:18:08.290Z,22.56
2018-10-15T15:19:35.883Z,22.50
2018-10-15T15:21:03.472Z,22.46
2018-10-15T15:22:31.085Z,22.39
2018-10-15T15:23:58.586Z,22.33
2018-10-15T15:25:25.942Z,22.30
2018-10-15T15:26:53.649Z,22.27
2018-10-15T15:28:21.202Z,22.20
2018-10-15T15:29:48.771Z,22.15
2018-10-15T15:31:16.423Z,22.12
2018-10-15T15:32:43.991Z,22.10
2018-10-15T15:34:11.531Z,22.06
2018-10-15T15:35:39.139Z,22.02
2018-10-15T15:37:06.655Z,21.96
2018-10-15T15:38:34.221Z,21.90
2018-10-15T15:40:01.755Z,21.86
2018-10-15T15:41:29.453Z,21.84
2018-10-15T15:42:56.981Z,21.80
2018-10-15T15:44:24.664Z,21.75
2018-10-15T15:45:52.320Z,21.71
2018-10-15T15:47:19.921Z,21.67
2018-10-15T15:48:47.497Z,21.62
2018-10-15T15:50:15.067Z,21.56
2018-10-15T15:51:42.683Z,21.51
2018-10-15T15:53:10.260Z,21.46
2018-10-15T15:54:37.930Z,21.37
2018-10-15T15:56:05.494Z,21.34
2018-10-15T15:57:33.184Z,21.29
2018-10-15T15:59:00.686Z,21.26
2018-10-15T16:00:28.271Z,21.18
2018-10-15T16:01:55.982Z,21.09
2018-10-15T16:03:23.591Z,21.04
2018-10-15T16:04:51.209Z,20.96
2018-10-15T16:06:18.853Z,20.85
2018-10-15T16:07:46.334Z,20.70
2018-10-15T16:09:13.992Z,20.61
2018-10-15T16:10:41.677Z,20.48
2018-10-15T16:12:09.092Z,20.38
2018-10-15T16:13:36.772Z,20.24
2018-10-15T16:15:04.288Z,20.08
2018-10-15T16:16:31.906Z,19.91
2018-10-15T16:17:59.485Z,19.73
2018-10-15T16:19:27.062Z,19.57
2018-10-15T16:20:54.622Z,19.45
2018-10-15T16:22:22.227Z,19.33
2018-10-15T16:23:50.003Z,19.23
2018-10-15T16:25:17.697Z,19.15
2018-10-15T16:26:49.311Z,19.08
2018-10-15T16:28:12.855Z,19.03
2018-10-15T16:29:40.261Z,19.02
2018-10-15T16:31:07.830Z,18.98
2018-10-15T16:32:35.492Z,18.96
2018-10-15T16:34:02.982Z,18.94
2018-10-15T16:35:30.615Z,18.95
2018-10-15T16:36:58.024Z,18.95
2018-10-15T16:38:25.611Z,18.95
2018-10-15T16:39:53.294Z,18.97
2018-10-15T16:41:20.767Z,18.98
2018-10-15T16:42:48.310Z,18.99
2018-10-15T16:44:15.888Z,18.95
2018-10-15T16:45:43.349Z,18.91
2018-10-15T16:47:10.992Z,18.91
2018-10-15T16:48:38.492Z,18.89
2018-10-15T16:50:06.069Z,18.86
2018-10-15T16:51:33.624Z,18.86
2018-10-15T16:53:01.086Z,18.86
2018-10-15T16:54:28.683Z,18.87
2018-10-15T16:55:56.162Z,18.87
2018-10-15T16:57:23.552Z,18.85
2018-10-15T16:58:50.766Z,18.84
2018-10-15T17:00:18.420Z,18.84
2018-10-15T17:01:45.875Z,18.82
2018-10-15T17:03:13.491Z,18.80
2018-10-15T17:04:40.729Z,18.78
2018-10-15T17:06:08.323Z,18.78
2018-10-15T17:07:35.882Z,18.76
2018-10-15T17:09:03.401Z,18.75
2018-10-15T17:10:30.734Z,18.73
2018-10-15T17:11:58.318Z,18.71
2018-10-15T17:13:25.839Z,18.68
2018-10-15T17:14:53.346Z,18.65
2018-10-15T17:16:20.934Z,18.62
2018-10-15T17:17:48.450Z,18.59
2018-10-15T17:19:15.926Z,18.56
2018-10-15T17:20:43.511Z,18.53
2018-10-15T17:22:11.075Z,18.49
2018-10-15T17:23:38.749Z,18.44
2018-10-15T17:25:06.311Z,18.42
2018-10-15T17:26:33.846Z,18.39
2018-10-15T17:28:01.296Z,18.34
2018-10-15T17:29:28.916Z,18.31
2018-10-15T17:30:56.681Z,18.27
2018-10-15T17:32:24.005Z,18.23
2018-10-15T17:33:51.538Z,18.18
2018-10-15T17:35:18.992Z,18.13
2018-10-15T17:36:46.462Z,18.09
2018-10-15T17:38:14.029Z,18.07
2018-10-15T17:39:41.611Z,18.05
2018-10-15T17:41:09.288Z,18.01
2018-10-15T17:42:36.904Z,17.99
2018-10-15T17:44:04.377Z,17.94
2018-10-15T17:45:31.901Z,17.92
2018-10-15T17:46:59.440Z,17.88
2018-10-15T17:48:26.898Z,17.85
2018-10-15T17:49:54.629Z,17.82
2018-10-15T17:51:22.241Z,17.79
2018-10-15T17:52:49.963Z,17.77
2018-10-15T17:54:17.265Z,17.75
2018-10-15T17:55:44.995Z,17.70
2018-10-15T17:57:12.225Z,17.67
2018-10-15T17:58:39.787Z,17.62
2018-10-15T18:00:07.329Z,17.54
2018-10-15T18:01:34.802Z,17.51
2018-10-15T18:03:02.410Z,17.50
2018-10-15T18:04:29.910Z,17.49
2018-10-15T18:05:57.431Z,17.48
2018-10-15T18:07:24.991Z,17.48
2018-10-15T18:08:52.566Z,17.49
2018-10-15T18:10:20.231Z,17.50
2018-10-15T18:11:47.820Z,17.50
2018-10-15T18:13:15.384Z,17.50
2018-10-15T18:14:42.863Z,17.47
2018-10-15T18:16:10.562Z,17.46
2018-10-15T18:17:37.996Z,17.44
2018-10-15T18:19:05.541Z,17.41
2018-10-15T18:20:33.117Z,17.40
2018-10-15T18:22:00.596Z,17.37
2018-10-15T18:23:28.162Z,17.32
2018-10-15T18:24:55.628Z,17.30
2018-10-15T18:26:23.236Z,17.28
2018-10-15T18:27:50.540Z,17.27
2018-10-15T18:29:18.168Z,17.26
2018-10-15T18:30:45.625Z,17.27
2018-10-15T18:32:13.114Z,17.26
2018-10-15T18:33:40.463Z,17.25
2018-10-15T18:35:08.044Z,17.24
2018-10-15T18:36:35.533Z,17.22
2018-10-15T18:38:03.123Z,17.22
2018-10-15T18:39:30.589Z,17.19
2018-10-15T18:40:58.304Z,17.17
2018-10-15T18:42:25.616Z,17.15
2018-10-15T18:43:53.205Z,17.12
2018-10-15T18:45:20.697Z,17.07
2018-10-15T18:46:48.279Z,17.04
2018-10-15T18:48:15.854Z,17.00